createdAt,value
2023-02-14T00:03:10.811Z,5.83
2023-02-14T00:08:32.758Z,5.84
2023-02-14T00:13:54.661Z,5.82
2023-02-14T00:19:18.505Z,5.79
2023-02-14T00:24:40.345Z,5.76
2023-02-14T00:30:02.388Z,5.74
2023-02-14T00:35:24.344Z,5.81
2023-02-14T00:40:46.323Z,5.76
2023-02-14T00:46:08.275Z,5.68
2023-02-14T00:51:30.642Z,5.60
2023-02-14T00:56:52.591Z,5.61
2023-02-14T01:02:14.485Z,5.51
2023-02-14T01:07:36.425Z,5.44
2023-02-14T01:12:58.336Z,5.47
2023-02-14T01:18:20.188Z,5.43
2023-02-14T01:23:43.300Z,5.48
2023-02-14T01:29:06.130Z,5.44
2023-02-14T01:34:28.051Z,5.40
2023-02-14T01:39:49.915Z,5.31
2023-02-14T01:45:21.696Z,5.27
2023-02-14T01:50:45.698Z,5.28
2023-02-14T01:56:13.046Z,5.30
2023-02-14T02:01:35.190Z,5.24
2023-02-14T02:07:04.522Z,5.16
2023-02-14T02:12:29.812Z,5.18
2023-02-14T02:18:23.670Z,5.17
2023-02-14T02:23:55.153Z,5.09
2023-02-14T02:29:55.744Z,5.09
2023-02-14T02:35:50.152Z,5.01
2023-02-14T02:41:39.021Z,5.00
2023-02-14T02:47:22.914Z,5.00
2023-02-14T02:52:49.908Z,4.97
2023-02-14T02:58:12.201Z,4.81
2023-02-14T03:03:36.509Z,4.95
2023-02-14T03:08:58.518Z,4.83
2023-02-14T03:14:35.637Z,4.83
2023-02-14T03:20:23.196Z,4.78
2023-02-14T03:26:33.034Z,4.63
2023-02-14T03:32:07.569Z,4.57
2023-02-14T03:37:36.777Z,4.57
2023-02-14T03:43:18.914Z,4.49
2023-02-14T03:48:42.862Z,4.45
2023-02-14T03:54:09.354Z,4.43
2023-02-14T03:59:31.353Z,4.17
2023-02-14T04:04:54.351Z,4.44
2023-02-14T04:10:16.719Z,4.47
2023-02-14T04:15:38.691Z,4.37
2023-02-14T04:21:00.903Z,4.37
2023-02-14T04:26:22.977Z,4.40
2023-02-14T04:31:44.913Z,4.26
2023-02-14T04:37:07.679Z,4.40
2023-02-14T04:42:29.641Z,4.43
2023-02-14T04:47:51.628Z,4.32
2023-02-14T04:53:13.486Z,4.42
2023-02-14T04:58:35.425Z,4.39
2023-02-14T05:03:57.301Z,4.32
2023-02-14T05:09:19.182Z,4.24
2023-02-14T05:14:41.022Z,4.38
2023-02-14T05:20:04.674Z,4.21
2023-02-14T05:25:26.527Z,4.29
2023-02-14T05:30:51.009Z,4.27
2023-02-14T05:36:13.277Z,4.28
2023-02-14T05:41:35.128Z,4.34
2023-02-14T05:46:57.053Z,4.28
2023-02-14T05:52:19.046Z,4.43
2023-02-14T05:57:40.925Z,4.38
2023-02-14T06:03:03.068Z,4.32
2023-02-14T06:08:25.340Z,4.33
2023-02-14T06:13:47.388Z,4.39
2023-02-14T06:19:09.300Z,4.33
2023-02-14T06:24:32.290Z,4.37
2023-02-14T06:29:54.181Z,4.35
2023-02-14T06:35:16.237Z,4.35
2023-02-14T06:40:38.329Z,4.43
2023-02-14T06:46:00.463Z,4.32
2023-02-14T06:51:22.333Z,4.49
2023-02-14T06:56:44.337Z,4.68
2023-02-14T07:02:06.512Z,4.63
2023-02-14T07:07:28.348Z,4.74
2023-02-14T07:12:50.314Z,4.83
2023-02-14T07:18:12.164Z,4.76
2023-02-14T07:23:34.006Z,4.91
2023-02-14T07:28:55.956Z,4.73
2023-02-14T07:34:17.815Z,4.78
2023-02-14T07:39:39.672Z,4.85
2023-02-14T07:45:09.450Z,4.95
2023-02-14T07:50:41.378Z,4.93
2023-02-14T07:56:03.243Z,5.00
2023-02-14T08:01:25.239Z,4.94
2023-02-14T08:06:47.124Z,5.10
2023-02-14T08:12:10.621Z,5.01
2023-02-14T08:17:32.434Z,5.03
2023-02-14T08:22:54.314Z,5.19
2023-02-14T08:28:17.282Z,5.14
2023-02-14T08:33:39.121Z,5.42
2023-02-14T08:39:02.567Z,5.24
2023-02-14T08:44:24.583Z,5.34
2023-02-14T08:49:46.444Z,5.30
2023-02-14T08:55:08.380Z,5.55
2023-02-14T09:00:31.391Z,5.48
2023-02-14T09:05:53.260Z,5.35
2023-02-14T09:11:21.488Z,5.54
2023-02-14T09:16:43.410Z,5.57
2023-02-14T09:22:06.924Z,5.84
2023-02-14T09:27:28.852Z,5.62
2023-02-14T09:32:52.655Z,5.75
2023-02-14T09:38:14.467Z,5.78
2023-02-14T09:43:50.558Z,5.82
2023-02-14T09:49:19.031Z,5.83
2023-02-14T09:54:44.070Z,6.02
2023-02-14T10:00:16.992Z,5.96
2023-02-14T10:05:48.570Z,6.32
2023-02-14T10:11:15.538Z,6.34
2023-02-14T10:16:42.993Z,6.27
2023-02-14T10:27:40.657Z,6.15
2023-02-14T10:33:13.556Z,6.38
2023-02-14T10:38:59.480Z,6.36
2023-02-14T10:44:44.994Z,6.59
2023-02-14T10:50:09.813Z,6.67
2023-02-14T10:55:44.088Z,6.50
2023-02-14T11:01:12.076Z,6.46
2023-02-14T11:06:34.622Z,6.35
2023-02-14T11:12:00.254Z,6.49
2023-02-14T11:17:32.023Z,6.34
2023-02-14T11:22:53.966Z,6.70
2023-02-14T11:28:18.298Z,6.83
2023-02-14T11:33:43.924Z,6.66
2023-02-14T11:39:21.786Z,6.96
2023-02-14T11:44:55.518Z,6.99
2023-02-14T11:50:23.578Z,6.88
2023-02-14T11:55:52.967Z,7.02
2023-02-14T12:01:24.343Z,6.89
2023-02-14T12:06:46.530Z,7.34
2023-02-14T12:12:23.608Z,7.45
2023-02-14T12:17:48.225Z,7.26
2023-02-14T12:23:43.736Z,7.47
2023-02-14T12:29:32.302Z,7.30
2023-02-14T12:35:06.492Z,7.02
2023-02-14T12:40:34.986Z,6.97
2023-02-14T12:46:06.503Z,7.02
2023-02-14T12:51:59.021Z,7.13
2023-02-14T12:57:32.313Z,7.07
2023-02-14T13:02:57.156Z,7.05
2023-02-14T13:08:43.142Z,7.03
2023-02-14T13:14:38.669Z,7.07
2023-02-14T13:20:38.961Z,6.86
2023-02-14T13:26:07.260Z,7.13
2023-02-14T13:31:30.712Z,7.28
2023-02-14T13:36:55.049Z,7.26
2023-02-14T13:43:01.908Z,7.30
2023-02-14T13:48:28.546Z,7.38
2023-02-14T13:53:50.549Z,7.38
2023-02-14T13:59:29.143Z,7.41
2023-02-14T14:04:51.003Z,7.43
2023-02-14T14:10:14.470Z,7.51
2023-02-14T14:15:36.349Z,7.39
2023-02-14T14:20:58.268Z,7.47
2023-02-14T14:26:46.353Z,7.44
2023-02-14T14:32:26.278Z,7.44
2023-02-14T14:37:57.218Z,7.36
2023-02-14T14:43:26.008Z,7.11
2023-02-14T14:48:53.564Z,7.02
2023-02-14T14:54:19.851Z,7.12
2023-02-14T14:59:41.709Z,7.06
2023-02-14T15:05:34.818Z,6.94
2023-02-14T15:11:22.823Z,7.01
2023-02-14T15:16:46.885Z,6.93
2023-02-14T15:22:31.498Z,6.80
2023-02-14T15:27:53.720Z,6.84
2023-02-14T15:33:15.575Z,6.78
2023-02-14T15:38:41.213Z,6.82
2023-02-14T15:44:03.285Z,6.76
2023-02-14T15:49:34.616Z,6.69
2023-02-14T15:54:56.558Z,6.59
2023-02-14T16:00:21.075Z,6.67
2023-02-14T16:05:50.052Z,6.53
2023-02-14T16:11:11.822Z,6.29
2023-02-14T16:16:57.380Z,6.01
2023-02-14T16:22:28.555Z,5.73
2023-02-14T16:27:50.427Z,5.64
2023-02-14T16:33:21.730Z,5.37
2023-02-14T16:38:45.478Z,5.35
2023-02-14T16:44:07.384Z,5.22
2023-02-14T16:49:29.224Z,5.21
2023-02-14T16:54:51.528Z,5.11
2023-02-14T17:00:14.281Z,5.04
2023-02-14T17:05:36.322Z,4.97
2023-02-14T17:10:58.615Z,5.00
2023-02-14T17:16:21.129Z,4.93
2023-02-14T17:21:43.037Z,4.83
2023-02-14T17:27:04.924Z,4.76
2023-02-14T17:32:27.023Z,4.63
2023-02-14T17:37:48.927Z,4.69
2023-02-14T17:43:10.782Z,4.64
2023-02-14T17:48:32.615Z,4.62
2023-02-14T17:53:54.522Z,4.54
2023-02-14T17:59:16.500Z,4.49
2023-02-14T18:04:38.424Z,4.47
2023-02-14T18:10:00.294Z,4.34
2023-02-14T18:15:22.135Z,4.38
2023-02-14T18:20:55.656Z,4.27
2023-02-14T18:26:18.790Z,4.22
2023-02-14T18:31:42.939Z,4.23
2023-02-14T18:37:04.876Z,4.21
2023-02-14T18:42:26.767Z,4.19
2023-02-14T18:47:48.588Z,4.13
2023-02-14T18:53:10.469Z,4.00
2023-02-14T18:58:32.691Z,4.00
2023-02-14T19:03:55.197Z,3.88
2023-02-14T19:09:18.422Z,3.82
2023-02-14T19:14:40.298Z,3.77
2023-02-14T19:20:02.209Z,3.82
2023-02-14T19:25:25.316Z,3.81
2023-02-14T19:30:47.168Z,3.69
2023-02-14T19:36:10.984Z,3.67
2023-02-14T19:41:33.740Z,3.61
2023-02-14T19:46:55.792Z,3.58
2023-02-14T19:52:26.436Z,3.60
2023-02-14T19:57:48.924Z,3.53
2023-02-14T20:03:10.890Z,3.52
2023-02-14T20:08:32.838Z,3.49
2023-02-14T20:13:54.775Z,3.52
2023-02-14T20:19:19.007Z,3.45
2023-02-14T20:24:40.848Z,3.39
2023-02-14T20:30:02.898Z,3.44
2023-02-14T20:35:24.775Z,3.40
2023-02-14T20:40:46.579Z,3.35
2023-02-14T20:46:08.541Z,3.35
2023-02-14T20:51:30.372Z,3.37
2023-02-14T20:56:52.715Z,3.35
2023-02-14T21:02:14.608Z,3.32
2023-02-14T21:07:36.487Z,3.21
2023-02-14T21:12:58.360Z,3.24
2023-02-14T21:18:20.250Z,3.24
2023-02-14T21:23:42.099Z,3.22
2023-02-14T21:29:04.626Z,3.22
2023-02-14T21:34:26.455Z,3.29
2023-02-14T21:39:48.673Z,3.42
2023-02-14T21:45:12.836Z,3.49
2023-02-14T21:50:34.704Z,3.62
2023-02-14T21:56:07.145Z,3.68
2023-02-14T22:01:31.390Z,3.87
2023-02-14T22:06:53.301Z,3.80
2023-02-14T22:12:15.166Z,3.93
2023-02-14T22:17:37.043Z,4.03
2023-02-14T22:22:58.880Z,4.07
2023-02-14T22:28:20.694Z,4.15
2023-02-14T22:33:42.961Z,4.05
2023-02-14T22:39:05.493Z,4.27
2023-02-14T22:44:27.488Z,4.19
2023-02-14T22:49:49.942Z,4.40
2023-02-14T22:55:11.798Z,4.49
2023-02-14T23:00:33.623Z,4.46
2023-02-14T23:05:59.247Z,4.58
2023-02-14T23:11:29.568Z,4.54
2023-02-14T23:16:51.508Z,4.63
2023-02-14T23:22:20.472Z,4.73
2023-02-14T23:27:45.849Z,4.70
2023-02-14T23:33:07.695Z,4.75
2023-02-14T23:38:29.574Z,4.81
2023-02-14T23:43:51.423Z,4.71
2023-02-14T23:49:13.491Z,4.77
2023-02-14T23:54:35.892Z,4.70
2023-02-14T23:59:57.749Z,4.75
